This is the latest recevied weather packets stored in our database for station/object OM1PU-6. If no packets are shown the sender has not sent any weather packets the latest 10 day(s).
| Time | Temp. | Humidity | Pressure | Rain* | Wind** | Luminosity | Snow |
|---|---|---|---|---|---|---|---|
| 1777579394 | 7.78° C | 48% | 1039.1 hPa | 0 mm | - | - | - |
| 1777578495 | 8.33° C | 46% | 1039.2 hPa | 0 mm | - | - | - |
| 1777577594 | 8.33° C | 46% | 1038.9 hPa | 0 mm | - | - | - |
| 1777576694 | 8.89° C | 45% | 1039 hPa | 0 mm | - | - | - |
| 1777575794 | 9.44° C | 43% | 1039 hPa | 0 mm | - | - | - |
| 1777574894 | 9.44° C | 42% | 1038.9 hPa | 0 mm | - | - | - |
| 1777573994 | 10° C | 40% | 1039.1 hPa | 0 mm | - | - | - |
| 1777573095 | 11.11° C | 38% | 1038.6 hPa | 0 mm | - | - | - |
| 1777572195 | 11.67° C | 35% | 1038.5 hPa | 0 mm | - | - | - |
| 1777571294 | 12.22° C | 35% | 1038.5 hPa | 0 mm | - | - | - |
| 1777570394 | 12.78° C | 32% | 1038.6 hPa | 0 mm | - | - | - |
| 1777569494 | 13.33° C | 33% | 1038.5 hPa | 0 mm | - | - | - |
| 1777568594 | 15° C | 30% | 1038.5 hPa | 0 mm | - | - | - |
| 1777567694 | 15.56° C | 30% | 1038.5 hPa | 0 mm | - | - | - |
| 1777566794 | 15.56° C | 30% | 1038.3 hPa | 0 mm | - | - | - |
| 1777565894 | 16.11° C | 30% | 1038.4 hPa | 0 mm | - | - | - |
| 1777564994 | 16.11° C | 31% | 1038.1 hPa | 0 mm | - | - | - |
| 1777564095 | 16.67° C | 31% | 1038.2 hPa | 0 mm | - | - | - |
| 1777563195 | 17.22° C | 30% | 1038.2 hPa | 0 mm | - | - | - |
| 1777562294 | 17.78° C | 29% | 1038.2 hPa | 0 mm | - | - | - |
| 1777561394 | 17.78° C | 30% | 1038.3 hPa | 0 mm | - | - | - |
| 1777560494 | 17.22° C | 29% | 1038.5 hPa | 0 mm | - | - | - |
| 1777559595 | 17.78° C | 30% | 1038.4 hPa | 0 mm | - | - | - |
| 1777558694 | 17.78° C | 29% | 1038.6 hPa | 0 mm | - | - | - |
| 1777557794 | 17.22° C | 31% | 1038.7 hPa | 0 mm | - | - | - |
* Rain latest 24 hours (hover to see other rain measurements)
** Current wind speed in m/s (hover to see current wind gust speed)